Time;durP1;ratioP1;P1;durP2;ratioP2;P2;SDS_P1;SDS_P2;PMS_P1;PMS_P2;Temp;Humidity;BMP_temperature;BMP_pressure;BME280_temperature;BME280_humidity;BME280_pressure;Samples;Min_cycle;Max_cycle;Signal;HPM_P1;HPM_P2
2022/01/11 00:00:21;;;;;;;95.85;53.38;;;;;;;3.41;80.62;102126.31;5014310;28;20080;-77
2022/01/11 00:02:48;;;;;;;104.10;53.95;;;;;;;3.43;80.54;102134.19;5013071;28;20091;-76
2022/01/11 00:05:37;;;;;;;90.80;51.60;;;;;;;3.42;80.14;102135.91;5021040;28;20069;-77
2022/01/11 00:08:02;;;;;;;98.72;53.72;;;;;;;3.36;80.17;102137.34;5012907;28;20125;-75
2022/01/11 00:10:33;;;;;;;98.53;53.30;;;;;;;3.26;79.54;102147.31;5012828;28;20125;-77
2022/01/11 00:13:02;;;;;;;98.70;51.92;;;;;;;3.24;79.68;102142.84;5013727;28;20045;-75
2022/01/11 00:15:28;;;;;;;99.88;55.03;;;;;;;3.24;79.92;102140.22;5019645;28;20038;-75
2022/01/11 00:17:55;;;;;;;92.82;52.58;;;;;;;3.24;79.68;102148.94;5013855;28;20068;-76
2022/01/11 00:20:21;;;;;;;98.22;51.33;;;;;;;3.24;79.54;102153.28;5013827;28;20072;-76
2022/01/11 00:25:27;;;;;;;107.70;58.85;;;;;;;3.12;79.71;102153.56;5013501;28;20042;-76
2022/01/11 00:27:52;;;;;;;118.68;62.50;;;;;;;3.08;80.01;102157.72;5013646;28;20034;-76
2022/01/11 00:30:18;;;;;;;112.70;59.55;;;;;;;3.04;79.72;102163.63;5013223;28;20040;-76
2022/01/11 00:32:49;;;;;;;104.90;60.83;;;;;;;2.98;79.10;102167.63;5018628;28;20479;-75
2022/01/11 00:35:22;;;;;;;117.07;63.60;;;;;;;2.94;79.01;102166.56;5018044;28;20464;-76
2022/01/11 00:37:48;;;;;;;117.30;61.35;;;;;;;2.85;79.31;102174.81;5000711;28;20061;-76
2022/01/11 00:40:14;;;;;;;100.00;56.40;;;;;;;2.77;78.65;102170.03;5028582;28;20030;-75
2022/01/11 00:42:39;;;;;;;108.93;59.00;;;;;;;2.59;78.45;102168.25;5013384;28;20099;-76
2022/01/11 00:45:07;;;;;;;102.55;56.20;;;;;;;2.56;79.19;102168.06;5012837;28;20492;-76
2022/01/11 00:47:33;;;;;;;111.10;59.25;;;;;;;2.56;79.46;102175.91;5008236;28;20044;-77
2022/01/11 00:49:58;;;;;;;111.57;58.58;;;;;;;2.50;79.26;102182.50;5012001;28;20037;-76
2022/01/11 00:52:24;;;;;;;116.03;62.30;;;;;;;2.42;78.80;102182.09;5013320;28;20500;-77
2022/01/11 00:54:50;;;;;;;110.57;59.70;;;;;;;2.35;79.29;102186.06;5011716;28;20038;-76
2022/01/11 00:57:16;;;;;;;104.95;54.38;;;;;;;2.38;79.18;102190.56;5012709;28;20045;-77
2022/01/11 00:59:42;;;;;;;107.70;57.08;;;;;;;2.42;79.29;102190.81;5013117;28;20124;-77
2022/01/11 01:02:07;;;;;;;115.07;59.15;;;;;;;2.38;78.71;102198.38;5020194;28;20026;-76
2022/01/11 01:04:32;;;;;;;109.68;56.95;;;;;;;2.32;78.99;102193.72;5012763;28;20504;-77
2022/01/11 01:06:58;;;;;;;108.90;59.03;;;;;;;2.24;78.63;102194.16;5020404;28;20037;-77
2022/01/11 01:09:28;;;;;;;111.25;57.30;;;;;;;2.21;78.98;102200.09;5004744;28;20061;-76
2022/01/11 01:11:53;;;;;;;116.22;61.03;;;;;;;2.22;79.03;102201.88;5004994;28;20121;-77
2022/01/11 01:14:21;;;;;;;104.70;56.58;;;;;;;2.16;78.92;102192.00;5028006;28;20457;-76
2022/01/11 01:16:48;;;;;;;116.60;59.08;;;;;;;2.08;78.74;102195.91;5007900;28;20037;-77
2022/01/11 01:19:31;;;;;;;116.75;62.15;;;;;;;2.05;79.17;102207.88;5011710;28;20544;-77
2022/01/11 01:21:57;;;;;;;113.38;59.58;;;;;;;2.02;78.61;102207.69;5011572;28;20133;-76
2022/01/11 01:24:22;;;;;;;121.10;61.08;;;;;;;1.92;78.49;102208.91;5012406;28;20088;-76
2022/01/11 01:26:48;;;;;;;121.88;63.38;;;;;;;1.84;79.02;102210.19;5013139;28;20034;-76
2022/01/11 01:29:14;;;;;;;123.50;62.85;;;;;;;1.86;79.32;102213.75;5012117;28;20041;-77
2022/01/11 01:31:39;;;;;;;121.25;61.45;;;;;;;1.84;79.14;102228.41;5013486;28;20045;-77
2022/01/11 01:34:05;;;;;;;126.15;65.35;;;;;;;1.81;79.22;102225.59;5012334;28;20090;-77
2022/01/11 01:36:31;;;;;;;123.82;63.95;;;;;;;1.78;78.74;102220.22;5012004;28;20038;-77
2022/01/11 01:38:56;;;;;;;124.25;64.88;;;;;;;1.62;79.03;102224.56;5013301;28;20047;-77
2022/01/11 01:41:22;;;;;;;118.65;61.42;;;;;;;1.66;79.63;102221.34;5012996;28;20030;-76
2022/01/11 01:43:52;;;;;;;115.82;58.97;;;;;;;1.68;79.63;102211.03;5008046;28;20036;-77
2022/01/11 01:46:17;;;;;;;126.55;65.70;;;;;;;1.72;79.63;102216.47;5010994;28;20037;-77
2022/01/11 01:48:44;;;;;;;122.00;62.03;;;;;;;1.78;79.80;102225.44;5013108;28;20121;-77
2022/01/11 01:51:10;;;;;;;107.75;59.20;;;;;;;1.83;78.91;102239.63;5012042;28;20108;-77
2022/01/11 01:53:39;;;;;;;122.15;63.13;;;;;;;1.90;79.08;102239.16;5011520;28;20038;-77
2022/01/11 01:56:06;;;;;;;114.40;60.22;;;;;;;1.92;78.87;102240.16;5020019;28;20145;-77
2022/01/11 01:58:33;;;;;;;112.93;58.55;;;;;;;1.87;78.45;102246.81;5011311;28;20034;-77
2022/01/11 02:01:05;;;;;;;122.65;62.42;;;;;;;1.88;78.69;102253.78;4999065;28;20045;-76
2022/01/11 02:03:37;;;;;;;119.25;58.83;;;;;;;1.80;78.58;102255.97;5011434;28;20042;-77
2022/01/11 02:06:05;;;;;;;114.57;62.42;;;;;;;1.77;78.90;102254.91;5011037;28;20060;-77
2022/01/11 02:08:31;;;;;;;116.40;59.78;;;;;;;1.78;78.79;102262.78;5012174;28;20037;-76
2022/01/11 02:10:56;;;;;;;106.55;53.78;;;;;;;1.77;78.26;102249.69;5010578;28;20440;-77
2022/01/11 02:13:22;;;;;;;110.38;56.20;;;;;;;1.66;78.71;102249.97;5010583;28;20237;-76
2022/01/11 02:15:49;;;;;;;109.63;55.70;;;;;;;1.68;78.92;102255.28;5010330;28;20080;-77
2022/01/11 02:18:22;;;;;;;117.07;58.28;;;;;;;1.68;78.75;102250.97;5010428;28;20041;-76
2022/01/11 02:20:51;;;;;;;114.03;57.88;;;;;;;1.69;78.95;102249.25;5010492;28;20062;-76
2022/01/11 02:23:26;;;;;;;114.05;56.72;;;;;;;1.69;78.86;102260.56;5009419;28;20124;-77
2022/01/11 02:25:51;;;;;;;114.30;60.50;;;;;;;1.70;79.04;102256.22;5026588;28;20036;-77
2022/01/11 02:28:22;;;;;;;114.13;58.15;;;;;;;1.73;78.72;102259.03;5011570;28;20033;-77
2022/01/11 02:30:50;;;;;;;118.63;60.28;;;;;;;1.78;78.75;102262.78;5009937;28;20038;-75
2022/01/11 02:33:32;;;;;;;123.63;60.95;;;;;;;1.78;78.88;102261.88;5010097;28;20057;-76
2022/01/11 02:36:12;;;;;;;115.43;60.42;;;;;;;1.83;79.16;102261.31;5005758;28;20563;-76
2022/01/11 02:38:38;;;;;;;116.10;61.13;;;;;;;1.84;78.36;102264.84;5010296;28;20041;-76
2022/01/11 02:41:04;;;;;;;112.32;56.72;;;;;;;1.88;78.58;102257.28;5018628;28;20039;-76
2022/01/11 02:43:29;;;;;;;117.10;58.17;;;;;;;1.85;78.73;102261.44;5010250;28;20066;-76
2022/01/11 02:46:00;;;;;;;114.88;58.63;;;;;;;1.87;78.53;102265.91;5009982;28;20037;-77
2022/01/11 02:48:28;;;;;;;121.00;60.80;;;;;;;1.88;78.13;102269.41;5010185;28;20050;-75
2022/01/11 02:50:54;;;;;;;111.53;56.60;;;;;;;1.85;78.40;102266.63;5010238;28;20029;-76
2022/01/11 02:53:19;;;;;;;117.78;58.25;;;;;;;1.80;77.94;102265.47;5011354;28;20505;-77
2022/01/11 02:55:46;;;;;;;112.97;58.45;;;;;;;1.76;78.79;102259.22;5010197;28;20404;-77
2022/01/11 02:58:12;;;;;;;120.45;57.20;;;;;;;1.73;78.24;102267.75;5018730;28;20029;-77
2022/01/11 03:00:39;;;;;;;116.20;56.47;;;;;;;1.74;78.30;102266.91;5014293;28;20038;-77
2022/01/11 03:03:23;;;;;;;111.25;53.78;;;;;;;1.68;77.54;102270.88;5022632;28;20037;-77
2022/01/11 03:06:03;;;;;;;107.60;52.97;;;;;;;1.59;78.20;102281.66;5014236;28;20068;-77
2022/01/11 03:08:35;;;;;;;114.68;54.28;;;;;;;1.53;78.11;102278.69;5007846;28;20552;-77
2022/01/11 03:11:01;;;;;;;116.10;55.47;;;;;;;1.51;78.64;102285.50;5014137;28;20026;-77
2022/01/11 03:13:30;;;;;;;113.80;53.03;;;;;;;1.52;78.26;102288.22;5021133;28;20121;-76
2022/01/11 03:15:56;;;;;;;118.30;57.35;;;;;;;1.54;78.13;102301.28;4997491;28;20080;-77
2022/01/11 03:18:21;;;;;;;111.05;54.45;;;;;;;1.56;77.89;102291.88;5010398;28;20038;-77
2022/01/11 03:20:50;;;;;;;120.78;57.58;;;;;;;1.50;77.67;102291.53;5013982;28;20045;-77
2022/01/11 03:23:16;;;;;;;114.20;56.20;;;;;;;1.55;78.35;102305.72;5013321;28;20396;-77
2022/01/11 03:25:43;;;;;;;120.78;55.47;;;;;;;1.54;77.45;102304.78;5030037;28;20083;-76
2022/01/11 03:28:11;;;;;;;113.55;55.35;;;;;;;1.52;77.60;102311.63;5013485;28;20409;-77
2022/01/11 03:30:36;;;;;;;118.57;53.10;;;;;;;1.49;77.54;102320.94;5011006;28;20125;-77
2022/01/11 03:33:03;;;;;;;112.57;54.90;;;;;;;1.42;76.84;102319.69;5014221;28;20052;-77
2022/01/11 03:35:32;;;;;;;107.40;52.53;;;;;;;1.41;77.21;102317.88;5013340;28;20092;-77
2022/01/11 03:37:57;;;;;;;105.60;50.92;;;;;;;1.31;76.66;102313.84;5013468;28;20062;-77
2022/01/11 03:40:25;;;;;;;103.38;48.47;;;;;;;1.26;77.13;102323.09;5013534;28;20116;-77
2022/01/11 03:42:53;;;;;;;103.45;51.38;;;;;;;1.32;77.16;102317.34;5013206;28;20038;-76
2022/01/11 03:45:24;;;;;;;116.97;55.67;;;;;;;1.39;77.47;102321.19;5012972;28;20041;-77
2022/01/11 03:47:56;;;;;;;108.28;52.55;;;;;;;1.41;77.28;102332.59;5013226;28;20127;-76
2022/01/11 03:50:23;;;;;;;116.88;55.00;;;;;;;1.43;77.27;102333.59;5013300;28;20096;-77
2022/01/11 03:52:58;;;;;;;117.18;53.80;;;;;;;1.47;77.51;102333.00;5013218;28;20062;-76
2022/01/11 03:55:43;;;;;;;110.32;51.80;;;;;;;1.43;77.37;102337.09;5005714;28;20045;-77
2022/01/11 03:58:09;;;;;;;121.40;54.08;;;;;;;1.36;77.12;102332.31;5010170;28;20061;-76
2022/01/11 04:00:35;;;;;;;114.40;53.78;;;;;;;1.36;77.11;102331.44;5012931;28;20104;-77
2022/01/11 04:03:00;;;;;;;116.15;51.45;;;;;;;1.35;77.03;102333.13;5014340;28;20053;-76
2022/01/11 04:05:26;;;;;;;107.95;49.67;;;;;;;1.28;75.92;102331.88;5012691;28;20500;-77
2022/01/11 04:07:51;;;;;;;111.32;50.95;;;;;;;1.28;76.53;102331.88;5012406;28;20051;-77
2022/01/11 04:10:17;;;;;;;107.43;47.28;;;;;;;1.28;76.05;102333.56;5021305;28;20412;-77
2022/01/11 04:12:42;;;;;;;112.35;50.95;;;;;;;1.27;76.31;102330.06;5014247;28;20025;-77
2022/01/11 04:15:09;;;;;;;108.78;49.85;;;;;;;1.16;76.58;102333.75;5020113;28;20025;-77
2022/01/11 04:17:34;;;;;;;133.68;54.50;;;;;;;1.09;76.81;102329.84;5013823;28;20041;-77
2022/01/11 04:20:00;;;;;;;117.60;52.72;;;;;;;1.12;77.64;102329.13;5012658;28;20444;-77
2022/01/11 04:22:25;;;;;;;120.40;53.60;;;;;;;1.16;77.47;102325.94;5012293;28;20040;-76
2022/01/11 04:24:51;;;;;;;122.32;50.83;;;;;;;1.04;77.19;102330.38;5012107;28;20080;-76
2022/01/11 04:27:18;;;;;;;101.60;47.03;;;;;;;1.04;77.79;102339.06;5012580;28;20034;-77
2022/01/11 04:29:43;;;;;;;110.40;47.40;;;;;;;1.10;77.50;102338.53;5013714;28;20025;-76
2022/01/11 04:32:08;;;;;;;115.07;50.05;;;;;;;1.06;77.31;102334.88;5012408;28;20029;-77
2022/01/11 04:34:34;;;;;;;107.78;47.67;;;;;;;1.10;77.37;102335.94;5013573;28;20029;-77
2022/01/11 04:36:59;;;;;;;99.40;47.95;;;;;;;1.15;77.43;102337.13;5012040;28;20029;-76
2022/01/11 04:39:26;;;;;;;100.38;46.92;;;;;;;1.20;77.22;102343.50;5014982;28;20022;-77
2022/01/11 04:41:51;;;;;;;101.15;46.78;;;;;;;1.13;76.77;102349.16;5013280;28;20030;-75
2022/01/11 04:44:18;;;;;;;94.80;43.97;;;;;;;1.14;76.90;102344.84;5011935;28;20447;-76
2022/01/11 04:46:44;;;;;;;99.93;42.13;;;;;;;1.13;76.49;102348.22;5013135;28;20030;-77
2022/01/11 04:49:10;;;;;;;107.00;45.88;;;;;;;1.11;76.55;102349.88;5012149;28;20374;-76
2022/01/11 04:51:35;;;;;;;94.15;40.30;;;;;;;1.18;76.75;102349.41;5012176;28;20034;-76
2022/01/11 04:54:03;;;;;;;102.32;45.67;;;;;;;1.21;76.63;102350.53;5011633;28;20041;-77
2022/01/11 04:56:29;;;;;;;99.35;43.85;;;;;;;1.24;76.65;102349.81;5012363;28;20113;-77
2022/01/11 04:58:55;;;;;;;92.00;43.03;;;;;;;1.24;76.51;102352.41;5012394;28;20184;-76
2022/01/11 05:01:21;;;;;;;91.43;40.78;;;;;;;1.20;76.21;102355.63;5012164;28;20046;-77
2022/01/11 05:03:46;;;;;;;94.72;42.10;;;;;;;1.19;76.50;102354.72;5013579;28;20032;-77
2022/01/11 05:06:12;;;;;;;87.60;39.55;;;;;;;1.17;76.48;102358.94;5011850;28;20026;-77
2022/01/11 05:08:38;;;;;;;98.85;42.28;;;;;;;1.08;76.13;102363.59;5012395;28;20022;-77
2022/01/11 05:11:06;;;;;;;95.53;41.72;;;;;;;1.02;76.46;102368.38;5011858;28;20040;-77
2022/01/11 05:13:32;;;;;;;100.95;43.72;;;;;;;0.97;76.59;102369.78;5020306;28;20416;-77
2022/01/11 05:16:02;;;;;;;100.88;44.70;;;;;;;1.05;76.86;102369.50;5012527;28;20034;-77
2022/01/11 05:18:27;;;;;;;96.38;40.80;;;;;;;1.08;76.72;102377.47;5020462;28;20080;-77
2022/01/11 05:20:53;;;;;;;91.68;40.33;;;;;;;1.14;76.74;102382.16;5008111;28;20034;-76
2022/01/11 05:23:18;;;;;;;85.03;38.58;;;;;;;1.17;76.28;102377.13;5013094;28;20036;-76
2022/01/11 05:25:44;;;;;;;81.10;38.15;;;;;;;1.22;76.46;102378.31;5013829;28;20030;-77
2022/01/11 05:28:11;;;;;;;76.53;38.05;;;;;;;1.25;76.11;102388.91;5012958;28;20061;-77
2022/01/11 05:30:37;;;;;;;85.60;40.25;;;;;;;1.17;76.09;102397.94;5009946;28;20108;-76
2022/01/11 05:33:03;;;;;;;87.60;38.65;;;;;;;1.18;76.01;102401.44;5009058;28;20120;-76
2022/01/11 05:35:29;;;;;;;83.05;38.10;;;;;;;1.19;75.86;102403.25;5010721;28;20030;-77
2022/01/11 05:37:54;;;;;;;81.32;37.53;;;;;;;1.14;75.64;102405.56;5009366;28;20046;-77
2022/01/11 05:40:21;;;;;;;82.93;36.25;;;;;;;1.05;75.42;102399.81;5010472;28;20037;-76
2022/01/11 05:42:49;;;;;;;81.00;36.67;;;;;;;1.07;75.97;102400.78;5010775;28;20049;-76
2022/01/11 05:45:17;;;;;;;86.47;37.83;;;;;;;1.04;75.98;102398.88;5010347;28;20030;-76
2022/01/11 05:47:43;;;;;;;82.13;39.47;;;;;;;0.92;75.92;102405.94;5010692;28;20041;-76
2022/01/11 05:50:12;;;;;;;93.10;39.45;;;;;;;0.95;76.12;102413.03;5010745;28;20092;-77
2022/01/11 05:52:39;;;;;;;82.05;37.13;;;;;;;0.97;75.78;102411.41;5010925;28;20029;-76
2022/01/11 05:55:07;;;;;;;83.25;37.42;;;;;;;0.99;75.83;102412.41;5011043;28;20049;-77
2022/01/11 05:57:33;;;;;;;118.15;52.25;;;;;;;1.05;76.38;102397.19;5010094;28;20028;-76
2022/01/11 05:59:58;;;;;;;106.72;44.92;;;;;;;1.10;76.30;102403.56;5009642;28;20485;-76
2022/01/11 06:02:24;;;;;;;84.78;39.40;;;;;;;1.05;76.34;102408.50;5009281;28;20033;-76
2022/01/11 06:04:50;;;;;;;76.85;35.97;;;;;;;1.03;76.25;102417.91;5010157;28;20126;-76
2022/01/11 06:07:15;;;;;;;71.95;34.55;;;;;;;1.08;76.00;102420.78;5010847;28;20075;-76
2022/01/11 06:09:41;;;;;;;79.50;35.83;;;;;;;1.05;75.96;102420.59;5010229;28;20068;-75
2022/01/11 06:12:07;;;;;;;66.65;33.67;;;;;;;1.08;75.87;102423.38;5009957;28;20428;-77
2022/01/11 06:14:33;;;;;;;66.25;30.90;;;;;;;1.08;75.64;102431.19;5008893;28;20080;-76
2022/01/11 06:16:58;;;;;;;62.17;27.77;;;;;;;1.01;74.98;102434.19;5023736;28;20080;-77
2022/01/11 06:19:24;;;;;;;60.25;28.10;;;;;;;0.99;75.69;102438.41;5008131;28;20557;-76
2022/01/11 06:21:58;;;;;;;52.28;25.80;;;;;;;1.02;75.74;102439.50;5009059;28;20430;-76
2022/01/11 06:24:24;;;;;;;57.92;27.13;;;;;;;1.07;75.23;102444.97;5008241;28;20041;-76
2022/01/11 06:26:49;;;;;;;62.95;29.48;;;;;;;1.09;75.30;102443.38;5010247;28;20507;-76
2022/01/11 06:29:14;;;;;;;60.25;28.33;;;;;;;1.08;75.03;102441.59;5010234;28;20037;-76
2022/01/11 06:31:40;;;;;;;59.60;30.23;;;;;;;1.11;75.32;102452.19;5009843;28;20042;-77
2022/01/11 06:34:05;;;;;;;58.20;29.98;;;;;;;1.15;75.56;102454.16;5010256;28;20033;-77
2022/01/11 06:36:31;;;;;;;52.88;27.10;;;;;;;1.09;74.68;102456.38;5009909;28;20147;-76
2022/01/11 06:38:56;;;;;;;61.58;31.25;;;;;;;1.09;75.21;102470.28;5009891;28;20053;-76
2022/01/11 06:41:26;;;;;;;55.85;28.27;;;;;;;1.04;74.69;102465.59;5006472;28;20037;-76
2022/01/11 06:43:54;;;;;;;65.68;30.77;;;;;;;1.00;74.72;102458.41;5003535;28;20511;-75
2022/01/11 06:46:23;;;;;;;68.30;31.92;;;;;;;1.01;75.20;102465.41;5022631;28;20552;-76
2022/01/11 06:48:51;;;;;;;72.63;32.75;;;;;;;1.02;75.43;102475.00;5004889;28;20026;-76
2022/01/11 06:51:18;;;;;;;64.03;30.83;;;;;;;1.05;75.24;102473.50;5013611;28;20085;-76
2022/01/11 06:53:47;;;;;;;60.13;30.67;;;;;;;1.07;75.05;102479.72;5019799;28;20026;-76
2022/01/11 06:56:12;;;;;;;64.18;30.30;;;;;;;1.05;75.09;102477.81;5009540;28;20067;-76
2022/01/11 06:58:38;;;;;;;59.10;28.63;;;;;;;1.07;75.39;102476.19;5009787;28;20442;-77
2022/01/11 07:01:05;;;;;;;61.80;30.05;;;;;;;1.10;74.73;102481.56;5010300;28;20037;-75
2022/01/11 07:03:31;;;;;;;57.42;27.17;;;;;;;1.04;75.31;102476.88;5021061;28;20043;-77
2022/01/11 07:06:21;;;;;;;58.95;30.33;;;;;;;0.99;75.09;102486.09;5014752;28;20030;-76
2022/01/11 07:08:47;;;;;;;55.33;27.35;;;;;;;0.94;74.52;102489.19;5010152;28;20037;-76
2022/01/11 07:11:13;;;;;;;51.60;25.35;;;;;;;0.83;74.64;102488.50;5010186;28;20038;-76
2022/01/11 07:13:39;;;;;;;48.17;24.30;;;;;;;0.67;74.15;102499.63;5009975;28;20503;-76
2022/01/11 07:16:05;;;;;;;54.60;26.90;;;;;;;0.57;75.15;102500.69;5009513;28;20030;-76
2022/01/11 07:18:30;;;;;;;52.03;25.17;;;;;;;0.60;75.31;102505.19;5009989;28;20084;-76
2022/01/11 07:20:59;;;;;;;48.38;23.98;;;;;;;0.65;75.45;102509.94;5007237;28;20104;-76
2022/01/11 07:23:27;;;;;;;49.28;25.10;;;;;;;0.73;75.79;102512.09;5007131;28;20034;-76
2022/01/11 07:25:53;;;;;;;47.38;23.75;;;;;;;0.79;74.83;102510.81;5006809;28;20385;-76
2022/01/11 07:28:23;;;;;;;45.37;23.53;;;;;;;0.77;74.86;102511.53;5007064;28;20022;-76
2022/01/11 07:30:49;;;;;;;46.20;22.88;;;;;;;0.87;75.21;102513.94;5008307;28;20511;-76
2022/01/11 07:33:16;;;;;;;44.75;23.40;;;;;;;0.92;74.79;102522.00;5024948;28;20531;-76
2022/01/11 07:35:44;;;;;;;52.63;28.48;;;;;;;0.96;75.07;102526.59;5009418;28;20041;-76
2022/01/11 07:38:09;;;;;;;67.13;33.35;;;;;;;0.99;74.76;102529.41;5009490;28;20037;-76
2022/01/11 07:40:36;;;;;;;59.72;30.67;;;;;;;0.95;74.81;102530.03;5017861;28;20034;-76
2022/01/11 07:43:12;;;;;;;66.80;30.83;;;;;;;1.02;74.90;102525.31;5005890;28;20562;-76
2022/01/11 07:45:50;;;;;;;52.63;28.02;;;;;;;1.08;75.11;102525.69;5012658;28;20029;-76
2022/01/11 07:48:18;;;;;;;50.53;25.80;;;;;;;1.09;74.69;102521.41;5013316;28;20045;-76
2022/01/11 07:50:50;;;;;;;53.25;25.42;;;;;;;1.05;74.99;102522.00;5013205;28;20120;-76
2022/01/11 07:53:16;;;;;;;51.67;25.83;;;;;;;1.00;74.51;102526.03;5021409;28;20136;-76
2022/01/11 07:55:47;;;;;;;51.47;26.25;;;;;;;0.85;74.62;102529.41;5012754;28;20506;-76
2022/01/11 07:58:14;;;;;;;49.25;25.52;;;;;;;0.86;74.90;102538.09;5012851;28;20141;-76
2022/01/11 08:00:40;;;;;;;51.08;25.65;;;;;;;0.80;74.80;102527.31;5012843;28;20120;-76
2022/01/11 08:03:06;;;;;;;45.55;23.83;;;;;;;0.74;75.10;102538.22;5012873;28;20129;-76
2022/01/11 08:05:46;;;;;;;59.40;29.77;;;;;;;0.81;75.49;102537.81;5012494;28;20494;-76
2022/01/11 08:08:11;;;;;;;56.08;29.45;;;;;;;0.93;75.05;102539.41;5021045;28;20034;-76
2022/01/11 08:10:37;;;;;;;58.00;30.20;;;;;;;0.99;75.05;102542.41;5012583;28;20034;-76
2022/01/11 08:13:06;;;;;;;117.03;45.17;;;;;;;1.01;75.70;102540.81;5006387;28;20040;-76
2022/01/11 08:15:33;;;;;;;90.72;41.65;;;;;;;1.09;75.50;102542.19;5009326;28;20034;-76
2022/01/11 08:17:59;;;;;;;78.25;38.10;;;;;;;1.16;74.75;102541.81;5012010;28;20030;-76
2022/01/11 08:20:24;;;;;;;65.85;31.77;;;;;;;1.05;74.89;102546.31;5008738;28;20046;-76
2022/01/11 08:22:54;;;;;;;53.45;26.40;;;;;;;0.97;74.80;102551.78;5012343;28;20036;-76
2022/01/11 08:25:21;;;;;;;53.30;26.77;;;;;;;0.96;74.76;102550.00;5020567;28;20461;-76
2022/01/11 08:27:46;;;;;;;58.70;26.65;;;;;;;1.01;74.87;102553.81;5013582;28;20041;-76
2022/01/11 08:30:12;;;;;;;57.60;30.15;;;;;;;1.04;74.68;102549.69;5013852;28;20112;-76
2022/01/11 08:32:41;;;;;;;50.55;25.92;;;;;;;1.08;74.37;102546.50;5012280;28;20062;-76
2022/01/11 08:35:09;;;;;;;88.72;40.75;;;;;;;1.08;74.98;102556.91;5011838;28;20041;-76
2022/01/11 08:37:34;;;;;;;69.40;35.17;;;;;;;1.11;74.94;102555.31;5011968;28;20037;-76
2022/01/11 08:40:00;;;;;;;60.72;31.73;;;;;;;1.10;74.36;102559.59;5010340;28;20113;-76
2022/01/11 08:42:27;;;;;;;58.60;30.02;;;;;;;1.11;74.36;102568.31;5006748;28;20041;-76
2022/01/11 08:44:54;;;;;;;46.40;25.08;;;;;;;1.05;74.21;102561.03;5011754;28;20444;-76
2022/01/11 08:47:31;;;;;;;52.20;26.73;;;;;;;1.04;74.39;102567.00;5008233;28;20603;-76
2022/01/11 08:50:02;;;;;;;48.47;26.50;;;;;;;1.05;73.83;102569.72;5006100;28;20030;-76
2022/01/11 08:52:35;;;;;;;51.05;26.27;;;;;;;1.09;73.69;102565.59;5010741;28;20133;-76
2022/01/11 08:55:02;;;;;;;47.33;25.95;;;;;;;1.11;73.79;102571.81;5011196;28;20037;-76
2022/01/11 08:57:27;;;;;;;57.10;29.25;;;;;;;1.21;73.41;102569.00;5012990;28;20050;-76
2022/01/11 08:59:53;;;;;;;49.95;27.48;;;;;;;1.23;73.58;102564.81;5011723;28;20061;-76
2022/01/11 09:02:21;;;;;;;55.05;28.77;;;;;;;1.25;73.50;102560.59;5018882;28;20076;-76
2022/01/11 09:04:47;;;;;;;50.45;26.60;;;;;;;1.30;72.60;102572.19;5011273;28;20037;-76
2022/01/11 09:07:20;;;;;;;53.33;27.85;;;;;;;1.34;72.91;102574.97;5011862;28;20038;-77
2022/01/11 09:09:47;;;;;;;45.40;23.77;;;;;;;1.27;72.31;102579.78;5011783;28;20152;-77
2022/01/11 09:12:15;;;;;;;46.05;24.00;;;;;;;1.25;72.83;102581.38;5011272;28;20080;-77
2022/01/11 09:14:44;;;;;;;43.28;21.65;;;;;;;1.20;71.57;102588.00;5011216;28;20515;-77
2022/01/11 09:17:11;;;;;;;43.28;23.25;;;;;;;1.18;72.40;102576.63;5011276;28;20084;-77
2022/01/11 09:19:37;;;;;;;45.95;22.88;;;;;;;1.20;71.93;102588.00;5011314;28;20090;-77
2022/01/11 09:22:05;;;;;;;48.17;24.42;;;;;;;1.12;72.07;102586.59;5011410;28;20045;-77
2022/01/11 09:24:31;;;;;;;43.75;22.27;;;;;;;1.17;72.33;102590.41;5011045;28;20111;-77
2022/01/11 09:27:03;;;;;;;42.20;22.75;;;;;;;1.26;72.37;102593.63;5011283;28;20029;-77
2022/01/11 09:29:32;;;;;;;46.33;22.25;;;;;;;1.26;71.05;102583.22;5011176;28;20036;-77
2022/01/11 09:31:59;;;;;;;45.17;24.70;;;;;;;1.14;71.52;102592.81;5011211;28;20041;-77
2022/01/11 09:34:27;;;;;;;46.50;24.63;;;;;;;1.08;71.71;102595.91;5010531;28;20496;-77
2022/01/11 09:36:54;;;;;;;42.55;22.70;;;;;;;1.12;71.64;102598.72;5011176;28;20120;-77
2022/01/11 09:39:20;;;;;;;54.38;25.85;;;;;;;1.11;71.89;102602.13;5010924;28;20469;-77
2022/01/11 09:41:45;;;;;;;52.95;27.50;;;;;;;1.09;72.02;102602.00;5010588;28;20030;-77
2022/01/11 09:44:12;;;;;;;48.33;25.80;;;;;;;1.10;71.76;102596.00;5008823;28;20114;-77
2022/01/11 09:46:38;;;;;;;54.25;28.15;;;;;;;1.04;71.92;102590.41;5010669;28;20042;-77
2022/01/11 09:49:04;;;;;;;62.92;31.70;;;;;;;1.11;72.37;102596.94;4994486;28;20030;-77
2022/01/11 09:51:36;;;;;;;62.22;31.52;;;;;;;1.16;72.48;102593.81;5010881;28;20443;-77
2022/01/11 09:54:05;;;;;;;64.10;33.20;;;;;;;1.26;72.06;102601.41;5010666;28;20040;-77
2022/01/11 09:56:35;;;;;;;54.17;27.55;;;;;;;1.35;71.72;102598.50;5010584;28;20045;-77
2022/01/11 09:59:00;;;;;;;47.38;25.40;;;;;;;1.51;71.27;102595.19;5010493;28;20057;-77
2022/01/11 10:01:44;;;;;;;51.85;25.88;;;;;;;1.50;70.96;102593.38;5007297;28;20542;-77
2022/01/11 10:04:16;;;;;;;47.83;24.17;;;;;;;1.58;71.11;102596.47;5009788;28;20042;-77
2022/01/11 10:07:05;;;;;;;47.38;24.08;;;;;;;1.53;70.29;102589.25;5010274;28;20034;-77
2022/01/11 10:09:32;;;;;;;54.25;25.65;;;;;;;1.45;70.30;102594.78;5021133;28;20105;-77
2022/01/11 10:12:02;;;;;;;49.50;24.13;;;;;;;1.40;70.51;102591.91;5010576;28;20124;-77
2022/01/11 10:14:35;;;;;;;44.88;24.23;;;;;;;1.52;70.42;102592.69;5007890;28;20036;-77
2022/01/11 10:17:11;;;;;;;44.22;22.75;;;;;;;1.55;69.72;102584.19;5006001;28;20040;-77
2022/01/11 10:19:39;;;;;;;;;;;;;;;1.49;69.01;102592.50;5007503;28;20121;-77
2022/01/11 10:22:08;;;;;;;46.30;23.52;;;;;;;1.50;70.40;102593.38;5024256;28;19945;-77
2022/01/11 10:24:42;;;;;;;51.35;22.67;;;;;;;1.49;69.49;102596.78;5009456;28;20524;-77
2022/01/11 10:27:18;;;;;;;46.55;22.05;;;;;;;1.49;69.75;102597.69;5008914;28;20037;-77
2022/01/11 10:29:56;;;;;;;44.15;20.88;;;;;;;1.22;68.54;102601.13;5004357;28;20027;-77
2022/01/11 10:32:31;;;;;;;45.03;21.98;;;;;;;1.19;69.85;102607.00;5010205;28;20120;-77
2022/01/11 10:35:06;;;;;;;45.15;24.02;;;;;;;1.24;70.66;102600.41;5018345;28;20400;-77
2022/01/11 10:37:40;;;;;;;44.88;23.20;;;;;;;1.38;70.29;102608.22;5010112;28;20029;-77
2022/01/11 10:40:09;;;;;;;47.90;26.00;;;;;;;1.46;70.32;102601.78;4998798;28;20034;-77
2022/01/11 10:42:38;;;;;;;50.53;26.00;;;;;;;1.48;70.36;102605.41;5009904;28;20030;-77
2022/01/11 10:45:12;;;;;;;59.67;31.05;;;;;;;1.62;69.61;102601.94;5009668;28;20052;-76
2022/01/11 10:47:47;;;;;;;61.72;29.83;;;;;;;1.55;70.28;102605.00;5010127;28;20038;-77
2022/01/11 10:50:14;;;;;;;55.20;27.48;;;;;;;1.60;70.11;102600.97;5010191;28;20472;-77
2022/01/11 10:52:42;;;;;;;60.00;28.33;;;;;;;1.40;69.91;102597.09;5008702;28;20027;-77
2022/01/11 10:55:19;;;;;;;65.13;33.22;;;;;;;1.51;71.14;102595.19;5009657;28;20567;-77
2022/01/11 10:57:53;;;;;;;63.97;33.63;;;;;;;1.66;70.78;102588.34;5009956;28;20133;-77
2022/01/11 11:00:33;;;;;;;66.90;32.88;;;;;;;1.80;70.22;102580.50;5018912;28;20492;-76
2022/01/11 11:03:12;;;;;;;51.47;26.20;;;;;;;1.95;69.29;102578.84;5026570;28;20030;-80
2022/01/11 11:05:51;;;;;;;48.50;24.85;;;;;;;2.05;68.82;102586.41;5012095;28;20087;-77
2022/01/11 11:08:31;;;;;;;45.05;22.77;;;;;;;2.11;68.57;102581.56;5001411;28;20034;-76
2022/01/11 11:11:32;;;;;;;47.80;26.42;;;;;;;2.11;68.71;102581.56;5018287;28;20069;-76
2022/01/11 11:14:49;;;;;;;46.90;24.73;;;;;;;2.27;67.53;102574.69;5009368;28;20061;-77
2022/01/11 11:17:32;;;;;;;39.55;21.80;;;;;;;2.26;67.42;102581.63;5021385;28;20069;-77
2022/01/11 11:20:08;;;;;;;39.28;20.40;;;;;;;2.18;66.72;102568.13;5009213;28;20084;-77
2022/01/11 11:22:34;;;;;;;43.70;23.38;;;;;;;2.31;67.39;102563.66;5011962;28;20045;-77